Terminal Aerodrome Forecast
Issued by NWS Houston/Galveston, TX

Home | Current Version | Previous Version | Text Only | Print | Product List | Glossary On
Versions: 1 2 3 4 5 6 7 8 9 10 11 12 13 14 15 16 17 18 19 20 21 22 23 24 25 26 27 28 29 30 31 32 33 34 35 36 37 38 39 40 41
000
FTUS44 KHGX 281140
TAFCLL
TAF
KCLL 281140Z 2812/0112 06007KT P6SM OVC030
     FM281500 06010KT P6SM -DZ BKN015 OVC025
     FM010300 06008KT 5SM BR VCSH BKN007 OVC015
     FM010600 04005KT 2SM BR VCSH OVC007
      TEMPO 0107/0111 1/2SM FG=

USA.gov is the U.S. government's official web portal to all federal, state and local government web resources and services.